createdAt,value
2023-04-07T00:01:36.235Z,42.91
2023-04-07T00:04:03.509Z,43.01
2023-04-07T00:06:31.115Z,44.00
2023-04-07T00:08:58.221Z,44.97
2023-04-07T00:11:25.221Z,45.01
2023-04-07T00:13:52.349Z,45.63
2023-04-07T00:16:19.748Z,45.13
2023-04-07T00:18:46.703Z,45.14
2023-04-07T00:21:13.667Z,46.32
2023-04-07T00:23:40.638Z,46.57
2023-04-07T00:26:07.516Z,47.03
2023-04-07T00:28:34.457Z,47.52
2023-04-07T00:31:01.938Z,47.17
2023-04-07T00:33:28.847Z,47.32
2023-04-07T00:35:58.153Z,48.63
2023-04-07T00:38:25.254Z,48.68
2023-04-07T00:40:58.712Z,47.07
2023-04-07T00:43:26.020Z,46.77
2023-04-07T00:45:53.845Z,46.13
2023-04-07T00:48:21.476Z,46.52
2023-04-07T00:50:48.294Z,46.34
2023-04-07T00:53:15.565Z,46.67
2023-04-07T00:55:42.681Z,46.75
2023-04-07T00:58:09.837Z,47.48
2023-04-07T01:00:42.684Z,47.35
2023-04-07T01:03:22.044Z,47.74
2023-04-07T01:05:56.886Z,48.29
2023-04-07T01:08:51.602Z,48.38
2023-04-07T01:11:43.463Z,48.26
2023-04-07T01:14:11.450Z,48.35
2023-04-07T01:16:51.568Z,49.15
2023-04-07T01:19:37.220Z,50.48
2023-04-07T01:22:05.908Z,51.11
2023-04-07T01:24:38.614Z,50.49
2023-04-07T01:28:04.560Z,50.28
2023-04-07T01:30:36.362Z,49.92
2023-04-07T01:33:03.325Z,49.80
2023-04-07T01:35:32.490Z,49.96
2023-04-07T01:38:00.865Z,50.56
2023-04-07T01:40:28.028Z,50.67
2023-04-07T01:42:55.023Z,50.81
2023-04-07T01:45:22.130Z,51.16
2023-04-07T01:47:49.316Z,51.74
2023-04-07T01:50:16.278Z,51.65
2023-04-07T01:52:43.283Z,52.37
2023-04-07T01:55:10.711Z,52.34
2023-04-07T01:57:37.610Z,52.50
2023-04-07T02:00:05.511Z,53.43
2023-04-07T02:02:34.503Z,53.64
2023-04-07T02:05:05.463Z,53.62
2023-04-07T02:07:43.102Z,54.40
2023-04-07T02:10:11.972Z,54.68
2023-04-07T02:12:38.858Z,55.41
2023-04-07T02:15:07.333Z,55.87
2023-04-07T02:17:35.390Z,55.79
2023-04-07T02:20:02.901Z,56.22
2023-04-07T02:22:29.778Z,55.74
2023-04-07T02:24:56.588Z,56.00
2023-04-07T02:27:23.401Z,56.28
2023-04-07T02:29:50.675Z,55.38
2023-04-07T02:32:18.101Z,55.52
2023-04-07T02:34:45.053Z,54.94
2023-04-07T02:37:11.953Z,54.90
2023-04-07T02:39:39.235Z,55.11
2023-04-07T02:42:06.087Z,55.87
2023-04-07T02:44:32.913Z,55.58
2023-04-07T02:47:00.044Z,55.59
2023-04-07T02:49:27.390Z,55.72
2023-04-07T02:51:54.503Z,57.07
2023-04-07T02:54:21.745Z,56.76
2023-04-07T02:56:48.730Z,55.45
2023-04-07T02:59:15.682Z,56.97
2023-04-07T03:01:42.835Z,56.64
2023-04-07T03:04:09.799Z,56.66
2023-04-07T03:06:37.397Z,57.02
2023-04-07T03:09:04.231Z,57.31
2023-04-07T03:11:31.117Z,57.50
2023-04-07T03:13:58.097Z,57.64
2023-04-07T03:16:25.176Z,58.05
2023-04-07T03:18:52.105Z,57.85
2023-04-07T03:21:18.947Z,57.94
2023-04-07T03:23:45.934Z,58.22
2023-04-07T03:26:12.792Z,58.19
2023-04-07T03:28:39.679Z,58.35
2023-04-07T03:31:06.713Z,58.41
2023-04-07T03:33:33.818Z,58.69
2023-04-07T03:36:00.798Z,58.49
2023-04-07T03:38:27.825Z,58.10
2023-04-07T03:40:54.827Z,57.56
2023-04-07T03:43:22.403Z,57.23
2023-04-07T03:45:49.282Z,57.15
2023-04-07T03:48:16.367Z,57.46
2023-04-07T03:50:43.285Z,57.35
2023-04-07T03:53:10.573Z,57.36
2023-04-07T03:55:37.638Z,57.61
2023-04-07T03:58:04.539Z,58.00
2023-04-07T04:00:33.652Z,57.94
2023-04-07T04:03:01.425Z,58.25
2023-04-07T04:05:28.291Z,58.61
2023-04-07T04:07:55.135Z,58.59
2023-04-07T04:10:22.124Z,58.80
2023-04-07T04:12:49.119Z,59.01
2023-04-07T04:15:16.234Z,59.49
2023-04-07T04:17:43.194Z,59.56
2023-04-07T04:20:10.391Z,59.32
2023-04-07T04:22:37.234Z,59.00
2023-04-07T04:25:05.260Z,59.26
2023-04-07T04:27:32.199Z,59.15
2023-04-07T04:29:59.171Z,58.88
2023-04-07T04:32:26.753Z,58.44
2023-04-07T04:34:53.748Z,57.82
2023-04-07T04:37:21.128Z,57.53
2023-04-07T04:39:48.019Z,57.82
2023-04-07T04:42:15.011Z,57.67
2023-04-07T04:44:41.914Z,57.67
2023-04-07T04:47:08.838Z,57.70
2023-04-07T04:49:36.455Z,57.85
2023-04-07T04:52:03.363Z,57.36
2023-04-07T04:54:30.739Z,57.56
2023-04-07T04:56:57.914Z,57.98
2023-04-07T04:59:24.759Z,57.58
2023-04-07T05:01:52.270Z,57.32
2023-04-07T05:04:19.433Z,57.17
2023-04-07T05:06:46.869Z,57.12
2023-04-07T05:09:13.715Z,57.19
2023-04-07T05:11:42.317Z,57.72
2023-04-07T05:14:09.375Z,57.45
2023-04-07T05:16:36.912Z,57.09
2023-04-07T05:19:04.065Z,56.84
2023-04-07T05:21:30.986Z,56.36
2023-04-07T05:23:58.080Z,55.94
2023-04-07T05:26:24.931Z,55.33
2023-04-07T05:28:51.991Z,55.01
2023-04-07T05:31:19.013Z,55.38
2023-04-07T05:33:45.963Z,55.42
2023-04-07T05:36:12.862Z,55.13
2023-04-07T05:38:39.970Z,54.99
2023-04-07T05:41:07.208Z,54.82
2023-04-07T05:43:34.134Z,54.55
2023-04-07T05:46:01.596Z,54.39
2023-04-07T05:48:28.545Z,54.20
2023-04-07T05:50:55.999Z,56.72
2023-04-07T05:53:22.974Z,56.64
2023-04-07T05:55:50.053Z,56.71
2023-04-07T05:58:17.046Z,57.13
2023-04-07T06:00:44.034Z,57.04
2023-04-07T06:03:11.172Z,58.01
2023-04-07T06:05:38.697Z,58.40
2023-04-07T06:08:05.801Z,57.62
2023-04-07T06:10:33.985Z,57.64
2023-04-07T06:13:01.255Z,58.03
2023-04-07T06:15:28.530Z,58.80
2023-04-07T06:17:55.830Z,59.09
2023-04-07T06:20:23.337Z,59.13
2023-04-07T06:22:50.403Z,59.32
2023-04-07T06:25:17.384Z,59.60
2023-04-07T06:27:44.289Z,59.73
2023-04-07T06:30:11.550Z,61.12
2023-04-07T06:32:38.485Z,61.47
2023-04-07T06:35:06.259Z,63.54
2023-04-07T06:37:33.185Z,63.48
2023-04-07T06:40:00.182Z,63.44
2023-04-07T06:42:27.065Z,63.55
2023-04-07T06:44:54.000Z,64.83
2023-04-07T06:47:21.776Z,65.06
2023-04-07T06:49:48.732Z,66.31
2023-04-07T06:52:15.620Z,69.15
2023-04-07T06:54:42.576Z,70.13
2023-04-07T06:57:12.346Z,70.41
2023-04-07T06:59:39.499Z,70.26
2023-04-07T07:02:07.984Z,68.51
2023-04-07T07:04:35.744Z,69.29
2023-04-07T07:07:03.953Z,69.64
2023-04-07T07:09:31.205Z,69.22
2023-04-07T07:11:58.213Z,70.86
2023-04-07T07:14:25.078Z,69.95
2023-04-07T07:16:52.162Z,70.50
2023-04-07T07:19:19.131Z,71.50
2023-04-07T07:21:46.200Z,71.74
2023-04-07T07:24:13.317Z,71.96
2023-04-07T07:26:43.553Z,71.45
2023-04-07T07:29:11.487Z,70.23
2023-04-07T07:31:38.442Z,71.69
2023-04-07T07:34:05.477Z,71.61
2023-04-07T07:36:32.447Z,71.66
2023-04-07T07:38:59.379Z,71.51
2023-04-07T07:41:28.070Z,71.80
2023-04-07T07:43:55.023Z,71.25
2023-04-07T07:46:24.252Z,71.00
2023-04-07T07:48:51.503Z,71.88
2023-04-07T07:51:21.948Z,72.52
2023-04-07T07:53:49.147Z,72.28
2023-04-07T07:56:16.414Z,72.37
2023-04-07T07:58:43.246Z,71.29
2023-04-07T08:01:10.123Z,71.57
2023-04-07T08:03:37.146Z,71.49
2023-04-07T08:06:04.132Z,70.86
2023-04-07T08:08:31.039Z,70.60
2023-04-07T08:10:57.849Z,69.91
2023-04-07T08:13:24.768Z,68.69
2023-04-07T08:15:51.793Z,69.46
2023-04-07T08:18:18.837Z,69.49
2023-04-07T08:20:47.040Z,68.64
2023-04-07T08:23:13.950Z,68.11
2023-04-07T08:25:41.247Z,67.76
2023-04-07T08:28:08.171Z,66.80
2023-04-07T08:30:35.150Z,65.99
2023-04-07T08:33:02.120Z,65.90
2023-04-07T08:35:29.084Z,64.22
2023-04-07T08:37:56.287Z,64.00
2023-04-07T08:40:23.343Z,64.44
2023-04-07T08:42:50.333Z,65.54
2023-04-07T08:45:19.511Z,67.78
2023-04-07T08:47:48.483Z,65.12
2023-04-07T08:50:17.535Z,64.64
2023-04-07T08:52:51.589Z,63.77
2023-04-07T08:55:18.666Z,65.01
2023-04-07T08:57:45.553Z,64.51
2023-04-07T09:00:13.385Z,65.24
2023-04-07T09:02:41.803Z,65.72
2023-04-07T09:05:09.201Z,64.37
2023-04-07T09:07:37.324Z,64.66
2023-04-07T09:10:04.989Z,64.59
2023-04-07T09:12:32.367Z,65.12
2023-04-07T09:14:59.279Z,64.65
2023-04-07T09:17:27.647Z,64.58
2023-04-07T09:19:58.646Z,65.06
2023-04-07T09:22:51.867Z,64.81
2023-04-07T09:25:24.255Z,65.97
2023-04-07T09:28:08.913Z,64.06
2023-04-07T09:30:35.745Z,63.49
2023-04-07T09:33:03.072Z,63.74
2023-04-07T09:35:30.240Z,63.44
2023-04-07T09:38:07.975Z,63.58
2023-04-07T09:40:35.655Z,62.96
2023-04-07T09:43:03.965Z,62.41
2023-04-07T09:45:40.744Z,61.35
2023-04-07T09:48:20.730Z,61.42
2023-04-07T09:50:52.286Z,61.80
2023-04-07T09:53:23.450Z,62.16
2023-04-07T09:55:50.870Z,62.03
2023-04-07T09:58:17.793Z,63.27
2023-04-07T10:00:44.687Z,63.00
2023-04-07T10:03:12.473Z,63.67
2023-04-07T10:05:39.497Z,63.40
2023-04-07T10:08:06.872Z,64.12
2023-04-07T10:10:35.278Z,62.67
2023-04-07T10:13:02.806Z,62.35
2023-04-07T10:15:29.713Z,62.34
2023-04-07T10:17:57.260Z,61.92
2023-04-07T10:20:24.319Z,62.85
2023-04-07T10:22:51.765Z,61.92
2023-04-07T10:25:19.956Z,59.66
2023-04-07T10:28:00.847Z,56.46
2023-04-07T10:30:29.621Z,55.14
2023-04-07T10:32:57.182Z,54.70
2023-04-07T10:35:24.417Z,53.96
2023-04-07T10:38:17.135Z,47.06
2023-04-07T10:40:44.677Z,45.28
2023-04-07T10:43:11.943Z,46.05
2023-04-07T10:45:58.183Z,44.38
2023-04-07T10:48:25.314Z,45.64
2023-04-07T10:51:13.136Z,43.54
2023-04-07T10:54:21.178Z,44.96
2023-04-07T10:57:03.275Z,44.13
2023-04-07T10:59:30.937Z,42.89
2023-04-07T11:02:13.315Z,42.02
2023-04-07T11:04:42.966Z,43.65
2023-04-07T11:07:10.628Z,41.43
2023-04-07T11:09:37.858Z,45.46
2023-04-07T11:12:07.717Z,45.72
2023-04-07T11:14:37.799Z,46.67
2023-04-07T11:17:04.751Z,46.80
2023-04-07T11:19:32.824Z,47.01
2023-04-07T11:22:29.166Z,47.86
2023-04-07T11:24:57.401Z,48.04
2023-04-07T11:27:24.546Z,47.46
2023-04-07T11:29:51.519Z,45.17
2023-04-07T11:32:26.099Z,45.13
2023-04-07T11:34:53.201Z,43.54
2023-04-07T11:37:21.622Z,43.64
2023-04-07T11:39:58.577Z,43.48
2023-04-07T11:42:36.238Z,42.31
2023-04-07T11:45:03.303Z,42.29
2023-04-07T11:47:37.574Z,44.71
2023-04-07T11:50:04.602Z,43.35
2023-04-07T11:52:44.778Z,42.41
2023-04-07T11:55:22.548Z,40.68
2023-04-07T11:57:51.568Z,40.75
2023-04-07T12:00:19.049Z,40.10
2023-04-07T12:02:46.928Z,40.67
2023-04-07T12:05:14.366Z,40.08
2023-04-07T12:07:52.400Z,40.65
2023-04-07T12:10:23.872Z,40.75
2023-04-07T12:12:51.738Z,39.78
2023-04-07T12:15:18.775Z,39.43
2023-04-07T12:17:49.769Z,40.93
2023-04-07T12:20:16.765Z,41.25
2023-04-07T12:22:46.858Z,40.33
2023-04-07T12:25:13.744Z,40.48
2023-04-07T12:27:43.695Z,40.50
2023-04-07T12:30:13.261Z,42.60
2023-04-07T12:32:40.664Z,45.00
2023-04-07T12:35:07.757Z,44.85
2023-04-07T12:37:34.585Z,45.98
2023-04-07T12:40:01.600Z,45.62
2023-04-07T12:42:28.567Z,45.03
2023-04-07T12:44:55.765Z,43.88
2023-04-07T12:47:22.747Z,43.49
2023-04-07T12:49:50.294Z,42.95
2023-04-07T12:52:17.499Z,42.06
2023-04-07T12:54:45.666Z,40.73
2023-04-07T12:57:12.703Z,40.51
2023-04-07T12:59:40.234Z,40.20
2023-04-07T13:02:07.427Z,40.46
2023-04-07T13:04:35.605Z,40.06
2023-04-07T13:07:03.531Z,41.71
2023-04-07T13:09:30.401Z,40.27
2023-04-07T13:11:58.312Z,39.90
2023-04-07T13:14:25.387Z,39.51
2023-04-07T13:16:53.478Z,40.05
2023-04-07T13:19:20.471Z,40.56
2023-04-07T13:21:48.336Z,39.64
2023-04-07T13:24:15.817Z,38.69
2023-04-07T13:26:42.696Z,37.93
2023-04-07T13:29:09.609Z,37.90
2023-04-07T13:31:36.659Z,35.59
2023-04-07T13:34:03.463Z,35.11
2023-04-07T13:36:30.454Z,35.47
2023-04-07T13:38:57.667Z,36.51
2023-04-07T13:41:24.545Z,37.11
2023-04-07T13:43:51.697Z,37.02
2023-04-07T13:48:49.788Z,37.89
2023-04-07T13:51:17.169Z,38.35
2023-04-07T13:53:44.087Z,36.99
2023-04-07T13:56:11.341Z,37.40
2023-04-07T13:58:38.451Z,37.02
2023-04-07T14:01:05.530Z,37.24
2023-04-07T14:03:33.047Z,37.07
2023-04-07T14:06:01.579Z,38.43
2023-04-07T14:08:28.526Z,37.58
2023-04-07T14:10:55.821Z,37.89
2023-04-07T14:13:23.278Z,36.96
2023-04-07T14:15:50.562Z,36.74
2023-04-07T14:18:17.793Z,36.39
2023-04-07T14:20:45.062Z,36.96
2023-04-07T14:23:14.024Z,37.33
2023-04-07T14:25:43.599Z,37.28
2023-04-07T14:28:10.496Z,36.92
2023-04-07T14:30:38.954Z,35.90
2023-04-07T14:33:06.094Z,35.75
2023-04-07T14:35:32.977Z,36.83
2023-04-07T14:37:59.960Z,36.09
2023-04-07T14:40:26.797Z,36.62
2023-04-07T14:43:06.867Z,36.66
2023-04-07T14:45:35.826Z,36.26
2023-04-07T14:48:03.056Z,37.36
2023-04-07T14:50:34.223Z,37.46
2023-04-07T14:53:01.705Z,37.75
2023-04-07T14:55:29.143Z,36.41
2023-04-07T14:57:56.204Z,36.80
2023-04-07T15:00:25.715Z,36.47
2023-04-07T15:02:54.724Z,37.65
2023-04-07T15:05:23.276Z,36.64
2023-04-07T15:07:51.068Z,37.62
2023-04-07T15:10:18.971Z,38.15
2023-04-07T15:12:47.396Z,38.35
2023-04-07T15:15:15.533Z,38.92
2023-04-07T15:17:44.992Z,39.76
2023-04-07T15:20:13.423Z,38.90
2023-04-07T15:22:40.568Z,39.51
2023-04-07T15:25:08.932Z,40.26
2023-04-07T15:27:36.183Z,40.48
2023-04-07T15:30:03.353Z,40.55
2023-04-07T15:32:31.367Z,40.86
2023-04-07T15:34:58.239Z,42.21
2023-04-07T15:37:25.576Z,41.89
2023-04-07T15:39:52.680Z,42.88
2023-04-07T15:42:19.568Z,42.82
2023-04-07T15:44:46.616Z,43.68
2023-04-07T15:47:13.698Z,43.38
2023-04-07T15:49:42.473Z,42.93
2023-04-07T15:52:09.597Z,44.12
2023-04-07T15:54:36.643Z,43.43
2023-04-07T15:57:03.881Z,43.65
2023-04-07T15:59:31.354Z,43.11
2023-04-07T16:01:58.888Z,41.21
2023-04-07T16:04:26.247Z,41.42
2023-04-07T16:06:53.259Z,42.02
2023-04-07T16:09:20.525Z,41.38
2023-04-07T16:11:47.593Z,43.01
2023-04-07T16:14:14.561Z,41.68
2023-04-07T16:16:41.705Z,41.86
2023-04-07T16:19:08.692Z,41.72
2023-04-07T16:21:35.716Z,41.42
2023-04-07T16:24:03.057Z,42.28
2023-04-07T16:26:30.205Z,41.82
2023-04-07T16:28:57.329Z,41.30
2023-04-07T16:31:24.386Z,42.15
2023-04-07T16:33:51.684Z,42.07
2023-04-07T16:36:18.725Z,42.51
2023-04-07T16:38:46.157Z,42.85
2023-04-07T16:41:13.043Z,42.25
2023-04-07T16:43:39.963Z,42.25
2023-04-07T16:46:06.915Z,42.17
2023-04-07T16:48:33.908Z,41.16
2023-04-07T16:51:01.360Z,40.60
2023-04-07T16:53:28.448Z,41.78
2023-04-07T16:55:55.685Z,42.90
2023-04-07T16:58:22.710Z,43.03
2023-04-07T17:00:49.634Z,44.08
2023-04-07T17:03:16.774Z,42.53
2023-04-07T17:05:48.593Z,43.03
2023-04-07T17:08:16.508Z,43.15
2023-04-07T17:10:43.431Z,42.87
2023-04-07T17:13:10.517Z,44.13
2023-04-07T17:15:38.547Z,44.12
2023-04-07T17:18:05.944Z,44.40
2023-04-07T17:20:32.933Z,45.47
2023-04-07T17:22:59.918Z,46.88
2023-04-07T17:25:26.809Z,46.82
2023-04-07T17:27:55.373Z,46.54
2023-04-07T17:30:22.791Z,47.91
2023-04-07T17:32:53.942Z,49.22
2023-04-07T17:35:21.308Z,49.93
2023-04-07T17:37:48.749Z,49.77
2023-04-07T17:40:15.975Z,50.35
2023-04-07T17:42:43.329Z,50.25
2023-04-07T17:45:11.044Z,50.07
2023-04-07T17:47:38.916Z,50.58
2023-04-07T17:50:06.933Z,50.81
2023-04-07T17:52:33.973Z,51.27
2023-04-07T17:55:01.156Z,50.95
2023-04-07T17:57:28.144Z,52.57
2023-04-07T17:59:55.109Z,52.13
2023-04-07T18:02:22.420Z,52.74
2023-04-07T18:04:49.670Z,54.24
2023-04-07T18:07:17.521Z,55.08
2023-04-07T18:09:45.166Z,55.23
2023-04-07T18:12:12.533Z,54.78
2023-04-07T18:14:39.581Z,54.55
2023-04-07T18:17:06.565Z,55.03
2023-04-07T18:19:34.120Z,57.05
2023-04-07T18:22:01.140Z,57.68
2023-04-07T18:24:28.180Z,58.30
2023-04-07T18:26:55.726Z,58.06
2023-04-07T18:29:22.612Z,58.05
2023-04-07T18:31:49.689Z,58.91
2023-04-07T18:34:16.722Z,59.25
2023-04-07T18:36:44.300Z,59.71
2023-04-07T18:39:11.326Z,58.92
2023-04-07T18:41:38.173Z,58.43
2023-04-07T18:44:05.148Z,58.62
2023-04-07T18:46:32.079Z,59.13
2023-04-07T18:48:59.097Z,59.75
2023-04-07T18:51:26.554Z,60.32
2023-04-07T18:53:53.387Z,60.25
2023-04-07T18:56:23.047Z,62.72
2023-04-07T18:58:51.585Z,61.97
2023-04-07T19:01:18.883Z,61.70
2023-04-07T19:03:46.247Z,61.69
2023-04-07T19:06:15.842Z,61.95
2023-04-07T19:08:43.176Z,62.48
2023-04-07T19:11:10.414Z,62.69
2023-04-07T19:13:37.272Z,63.17
2023-04-07T19:16:04.186Z,63.51
2023-04-07T19:18:32.164Z,63.97
2023-04-07T19:20:59.276Z,64.23
2023-04-07T19:23:26.332Z,64.27
2023-04-07T19:25:53.430Z,64.10
2023-04-07T19:28:20.464Z,64.12
2023-04-07T19:30:47.357Z,64.00
2023-04-07T19:33:14.895Z,64.48
2023-04-07T19:35:41.770Z,64.45
2023-04-07T19:38:08.668Z,64.54
2023-04-07T19:40:36.724Z,64.80
2023-04-07T19:43:03.825Z,64.90
2023-04-07T19:45:30.909Z,65.48
2023-04-07T19:47:58.483Z,65.11
2023-04-07T19:50:25.858Z,65.15
2023-04-07T19:52:53.567Z,65.60
2023-04-07T19:55:20.949Z,65.63
2023-04-07T19:57:48.928Z,65.75
2023-04-07T20:00:16.374Z,65.60
2023-04-07T20:02:43.496Z,65.86
2023-04-07T20:05:10.869Z,65.50
2023-04-07T20:07:37.880Z,65.57
2023-04-07T20:10:05.162Z,65.83
2023-04-07T20:12:32.122Z,65.18
2023-04-07T20:14:59.140Z,65.96
2023-04-07T20:17:26.342Z,65.76
2023-04-07T20:19:56.055Z,65.45
2023-04-07T20:22:23.345Z,64.95
2023-04-07T20:24:50.224Z,65.46
2023-04-07T20:27:18.705Z,65.12
2023-04-07T20:29:45.669Z,65.40
2023-04-07T20:32:12.608Z,65.60
2023-04-07T20:34:39.548Z,65.92
2023-04-07T20:37:06.817Z,66.06
2023-04-07T20:39:33.788Z,65.56
2023-04-07T20:42:00.802Z,65.49
2023-04-07T20:44:29.392Z,65.21
2023-04-07T20:46:56.545Z,65.14
2023-04-07T20:49:23.404Z,65.11
2023-04-07T20:51:50.509Z,65.32
2023-04-07T20:54:20.313Z,65.91
2023-04-07T20:56:47.862Z,65.78
2023-04-07T20:59:14.747Z,65.87
2023-04-07T21:01:41.871Z,65.57
2023-04-07T21:04:09.785Z,64.99
2023-04-07T21:06:37.043Z,65.41
2023-04-07T21:09:05.969Z,65.50
2023-04-07T21:11:32.868Z,65.43
2023-04-07T21:13:59.977Z,65.13
2023-04-07T21:16:26.915Z,65.28
2023-04-07T21:18:54.006Z,65.16
2023-04-07T21:21:20.934Z,65.34
2023-04-07T21:23:47.778Z,65.47
2023-04-07T21:26:15.063Z,65.63
2023-04-07T21:28:41.888Z,65.77
2023-04-07T21:31:09.400Z,66.40
2023-04-07T21:33:36.348Z,66.25
2023-04-07T21:36:06.642Z,66.34
2023-04-07T21:38:33.548Z,66.30
2023-04-07T21:41:00.604Z,66.60
2023-04-07T21:43:29.126Z,66.67
2023-04-07T21:45:55.930Z,66.87
2023-04-07T21:48:23.838Z,66.49
2023-04-07T21:50:53.918Z,66.90
2023-04-07T21:53:21.174Z,67.10
2023-04-07T21:55:48.224Z,66.30
2023-04-07T21:58:15.010Z,66.20
2023-04-07T22:00:42.018Z,65.34
2023-04-07T22:03:09.202Z,65.37
2023-04-07T22:05:36.389Z,65.87
2023-04-07T22:08:03.421Z,65.72
2023-04-07T22:10:30.598Z,65.54
2023-04-07T22:12:57.661Z,65.99
2023-04-07T22:15:24.602Z,65.86
2023-04-07T22:17:51.581Z,65.56
2023-04-07T22:20:18.588Z,65.55
2023-04-07T22:22:45.818Z,65.21
2023-04-07T22:25:12.818Z,64.98
2023-04-07T22:27:39.751Z,65.25
2023-04-07T22:30:10.266Z,65.46
2023-04-07T22:32:37.480Z,65.47
2023-04-07T22:35:04.565Z,65.23
2023-04-07T22:37:31.523Z,65.62
2023-04-07T22:39:58.529Z,65.49
2023-04-07T22:42:25.470Z,66.21
2023-04-07T22:44:52.430Z,67.09
2023-04-07T22:47:21.568Z,67.45
2023-04-07T22:49:48.630Z,68.04
2023-04-07T22:52:15.927Z,68.37
2023-04-07T22:54:42.858Z,68.16
2023-04-07T22:57:09.806Z,68.16
2023-04-07T22:59:37.265Z,67.87
2023-04-07T23:02:04.262Z,68.70
2023-04-07T23:04:31.238Z,69.01
2023-04-07T23:06:58.171Z,68.63
2023-04-07T23:09:25.042Z,67.41
2023-04-07T23:11:52.094Z,67.64
2023-04-07T23:14:19.137Z,67.56
2023-04-07T23:16:46.324Z,67.01
2023-04-07T23:19:15.931Z,66.86
2023-04-07T23:21:43.039Z,66.94
2023-04-07T23:24:10.046Z,67.95
2023-04-07T23:26:36.937Z,68.19
2023-04-07T23:29:03.805Z,68.52
2023-04-07T23:31:31.479Z,68.95
2023-04-07T23:33:59.917Z,68.71
2023-04-07T23:36:27.428Z,68.69
2023-04-07T23:38:57.335Z,68.72
2023-04-07T23:41:24.277Z,68.19
2023-04-07T23:43:51.213Z,67.83
2023-04-07T23:46:18.237Z,67.08
2023-04-07T23:48:45.193Z,67.18
2023-04-07T23:51:13.031Z,66.41
2023-04-07T23:53:39.928Z,66.70
2023-04-07T23:56:07.255Z,66.57
2023-04-07T23:58:34.252Z,66.69
